sensor_id;sensor_type;location;lat;lon;timestamp;pressure;altitude;pressure_sealevel;temperature;humidity
49194;BME280;35029;50.804;12.866;2023-12-20T00:01:46;97293.94;;;3.99;100.00
49194;BME280;35029;50.804;12.866;2023-12-20T00:04:12;97300.66;;;4.02;100.00
49194;BME280;35029;50.804;12.866;2023-12-20T00:06:37;97299.69;;;4.11;100.00
49194;BME280;35029;50.804;12.866;2023-12-20T00:09:03;97298.53;;;4.05;100.00
49194;BME280;35029;50.804;12.866;2023-12-20T00:11:29;97297.56;;;3.98;100.00
49194;BME280;35029;50.804;12.866;2023-12-20T00:13:54;97294.13;;;3.98;100.00
49194;BME280;35029;50.804;12.866;2023-12-20T00:16:20;97300.50;;;3.95;100.00
49194;BME280;35029;50.804;12.866;2023-12-20T00:18:45;97274.13;;;3.88;100.00
49194;BME280;35029;50.804;12.866;2023-12-20T00:21:11;97290.50;;;3.99;100.00
49194;BME280;35029;50.804;12.866;2023-12-20T00:23:37;97272.97;;;3.83;100.00
49194;BME280;35029;50.804;12.866;2023-12-20T00:26:02;97285.44;;;3.89;100.00
49194;BME280;35029;50.804;12.866;2023-12-20T00:28:28;97281.34;;;3.86;100.00
49194;BME280;35029;50.804;12.866;2023-12-20T00:30:53;97284.31;;;3.92;100.00
49194;BME280;35029;50.804;12.866;2023-12-20T00:33:19;97280.69;;;4.01;100.00
49194;BME280;35029;50.804;12.866;2023-12-20T00:35:45;97273.81;;;3.92;100.00
49194;BME280;35029;50.804;12.866;2023-12-20T00:38:11;97278.88;;;3.93;100.00
49194;BME280;35029;50.804;12.866;2023-12-20T00:40:37;97268.56;;;3.83;100.00
49194;BME280;35029;50.804;12.866;2023-12-20T00:43:03;97244.81;;;3.77;100.00
49194;BME280;35029;50.804;12.866;2023-12-20T00:45:28;97259.69;;;3.84;100.00
49194;BME280;35029;50.804;12.866;2023-12-20T00:47:54;97263.63;;;3.88;100.00
49194;BME280;35029;50.804;12.866;2023-12-20T00:50:19;97259.22;;;3.81;100.00
49194;BME280;35029;50.804;12.866;2023-12-20T00:52:47;97267.25;;;3.87;100.00
49194;BME280;35029;50.804;12.866;2023-12-20T00:55:13;97268.88;;;3.80;100.00
49194;BME280;35029;50.804;12.866;2023-12-20T00:57:39;97268.56;;;3.92;100.00
49194;BME280;35029;50.804;12.866;2023-12-20T01:00:05;97249.06;;;3.86;100.00
49194;BME280;35029;50.804;12.866;2023-12-20T01:02:31;97259.41;;;3.79;100.00
49194;BME280;35029;50.804;12.866;2023-12-20T01:04:57;97247.75;;;3.82;100.00
49194;BME280;35029;50.804;12.866;2023-12-20T01:07:22;97247.09;;;3.80;100.00
49194;BME280;35029;50.804;12.866;2023-12-20T01:09:49;97260.03;;;3.73;100.00
49194;BME280;35029;50.804;12.866;2023-12-20T01:12:14;97259.41;;;3.79;100.00
49194;BME280;35029;50.804;12.866;2023-12-20T01:14:40;97259.69;;;3.76;100.00
49194;BME280;35029;50.804;12.866;2023-12-20T01:17:06;97252.50;;;3.70;100.00
49194;BME280;35029;50.804;12.866;2023-12-20T01:19:31;97245.63;;;3.69;100.00
49194;BME280;35029;50.804;12.866;2023-12-20T01:21:57;97253.97;;;3.72;100.00
49194;BME280;35029;50.804;12.866;2023-12-20T01:24:22;97250.84;;;3.77;100.00
49194;BME280;35029;50.804;12.866;2023-12-20T01:26:48;97237.13;;;3.59;100.00
49194;BME280;35029;50.804;12.866;2023-12-20T01:29:13;97248.25;;;3.69;100.00
49194;BME280;35029;50.804;12.866;2023-12-20T01:31:40;97241.34;;;3.60;100.00
49194;BME280;35029;50.804;12.866;2023-12-20T01:34:06;97260.69;;;3.59;100.00
49194;BME280;35029;50.804;12.866;2023-12-20T01:36:32;97252.66;;;3.68;100.00
49194;BME280;35029;50.804;12.866;2023-12-20T01:38:57;97249.88;;;3.62;100.00
49194;BME280;35029;50.804;12.866;2023-12-20T01:41:23;97261.00;;;3.55;100.00
49194;BME280;35029;50.804;12.866;2023-12-20T01:43:48;97238.91;;;3.58;100.00
49194;BME280;35029;50.804;12.866;2023-12-20T01:46:14;97243.34;;;3.58;100.00
49194;BME280;35029;50.804;12.866;2023-12-20T01:48:40;97238.09;;;3.58;100.00
49194;BME280;35029;50.804;12.866;2023-12-20T01:51:05;97221.34;;;3.50;100.00
49194;BME280;35029;50.804;12.866;2023-12-20T01:53:31;97232.19;;;3.64;100.00
49194;BME280;35029;50.804;12.866;2023-12-20T01:55:58;97232.00;;;3.57;100.00
49194;BME280;35029;50.804;12.866;2023-12-20T01:58:24;97232.84;;;3.58;100.00
49194;BME280;35029;50.804;12.866;2023-12-20T02:00:50;97220.06;;;3.63;100.00
49194;BME280;35029;50.804;12.866;2023-12-20T02:03:17;97223.00;;;3.68;100.00
49194;BME280;35029;50.804;12.866;2023-12-20T02:05:43;97204.66;;;3.51;100.00
49194;BME280;35029;50.804;12.866;2023-12-20T02:08:09;97182.38;;;3.31;100.00
49194;BME280;35029;50.804;12.866;2023-12-20T02:10:35;97216.78;;;3.52;100.00
49194;BME280;35029;50.804;12.866;2023-12-20T02:13:00;97211.88;;;3.49;100.00
49194;BME280;35029;50.804;12.866;2023-12-20T02:15:26;97214.97;;;3.61;100.00
49194;BME280;35029;50.804;12.866;2023-12-20T02:17:52;97199.41;;;3.51;100.00
49194;BME280;35029;50.804;12.866;2023-12-20T02:20:17;97208.59;;;3.47;100.00
49194;BME280;35029;50.804;12.866;2023-12-20T02:22:44;97214.66;;;3.56;100.00
49194;BME280;35029;50.804;12.866;2023-12-20T02:25:10;97218.44;;;3.45;100.00
49194;BME280;35029;50.804;12.866;2023-12-20T02:27:35;97212.53;;;3.60;100.00
49194;BME280;35029;50.804;12.866;2023-12-20T02:30:01;97214.34;;;3.59;100.00
49194;BME280;35029;50.804;12.866;2023-12-20T02:32:27;97206.47;;;3.59;100.00
49194;BME280;35029;50.804;12.866;2023-12-20T02:34:53;97205.97;;;3.55;100.00
49194;BME280;35029;50.804;12.866;2023-12-20T02:37:19;97195.16;;;3.42;100.00
49194;BME280;35029;50.804;12.866;2023-12-20T02:39:44;97199.25;;;3.61;100.00
49194;BME280;35029;50.804;12.866;2023-12-20T02:42:10;97194.34;;;3.58;100.00
49194;BME280;35029;50.804;12.866;2023-12-20T02:44:35;97194.84;;;3.62;100.00
49194;BME280;35029;50.804;12.866;2023-12-20T02:47:02;97204.81;;;3.58;100.00
49194;BME280;35029;50.804;12.866;2023-12-20T02:49:27;97182.38;;;3.47;100.00
49194;BME280;35029;50.804;12.866;2023-12-20T02:51:54;97194.16;;;3.60;100.00
49194;BME280;35029;50.804;12.866;2023-12-20T02:54:19;97199.41;;;3.60;100.00
49194;BME280;35029;50.804;12.866;2023-12-20T02:56:45;97203.69;;;3.61;100.00
49194;BME280;35029;50.804;12.866;2023-12-20T02:59:11;97190.41;;;3.46;100.00
49194;BME280;35029;50.804;12.866;2023-12-20T03:01:42;97198.78;;;3.49;100.00
49194;BME280;35029;50.804;12.866;2023-12-20T03:04:08;97210.56;;;3.53;100.00
49194;BME280;35029;50.804;12.866;2023-12-20T03:06:33;97171.75;;;3.41;100.00
49194;BME280;35029;50.804;12.866;2023-12-20T03:08:59;97179.59;;;3.41;100.00
49194;BME280;35029;50.804;12.866;2023-12-20T03:11:27;97185.84;;;3.40;100.00
49194;BME280;35029;50.804;12.866;2023-12-20T03:13:54;97184.38;;;3.45;100.00
49194;BME280;35029;50.804;12.866;2023-12-20T03:16:19;97189.09;;;3.50;100.00
49194;BME280;35029;50.804;12.866;2023-12-20T03:18:45;97166.50;;;3.41;100.00
49194;BME280;35029;50.804;12.866;2023-12-20T03:21:10;97182.22;;;3.57;100.00
49194;BME280;35029;50.804;12.866;2023-12-20T03:23:36;97183.84;;;3.58;100.00
49194;BME280;35029;50.804;12.866;2023-12-20T03:26:01;97171.91;;;3.47;100.00
49194;BME280;35029;50.804;12.866;2023-12-20T03:28:27;97182.38;;;3.31;100.00
49194;BME280;35029;50.804;12.866;2023-12-20T03:30:53;97189.91;;;3.42;100.00
49194;BME280;35029;50.804;12.866;2023-12-20T03:33:20;97171.09;;;3.30;100.00
49194;BME280;35029;50.804;12.866;2023-12-20T03:35:45;97186.97;;;3.45;100.00
49194;BME280;35029;50.804;12.866;2023-12-20T03:38:11;97178.78;;;3.48;100.00
49194;BME280;35029;50.804;12.866;2023-12-20T03:40:36;97185.19;;;3.46;100.00
49194;BME280;35029;50.804;12.866;2023-12-20T03:43:02;97182.88;;;3.34;100.00
49194;BME280;35029;50.804;12.866;2023-12-20T03:45:28;97189.28;;;3.40;100.00
49194;BME280;35029;50.804;12.866;2023-12-20T03:47:53;97182.38;;;3.47;100.00
49194;BME280;35029;50.804;12.866;2023-12-20T03:50:23;97190.25;;;3.55;100.00
49194;BME280;35029;50.804;12.866;2023-12-20T03:52:49;97187.47;;;3.49;100.00
49194;BME280;35029;50.804;12.866;2023-12-20T03:55:15;97189.59;;;3.45;100.00
49194;BME280;35029;50.804;12.866;2023-12-20T03:57:40;97191.56;;;3.35;100.00
49194;BME280;35029;50.804;12.866;2023-12-20T04:00:07;97175.50;;;3.30;100.00
49194;BME280;35029;50.804;12.866;2023-12-20T04:02:38;97192.06;;;3.38;100.00
49194;BME280;35029;50.804;12.866;2023-12-20T04:05:04;97187.78;;;3.37;100.00
49194;BME280;35029;50.804;12.866;2023-12-20T04:07:30;97188.28;;;3.41;100.00
49194;BME280;35029;50.804;12.866;2023-12-20T04:09:56;97193.84;;;3.38;100.00
49194;BME280;35029;50.804;12.866;2023-12-20T04:12:21;97190.25;;;3.47;100.00
49194;BME280;35029;50.804;12.866;2023-12-20T04:14:47;97165.53;;;3.25;100.00
49194;BME280;35029;50.804;12.866;2023-12-20T04:17:12;97196.47;;;3.38;100.00
49194;BME280;35029;50.804;12.866;2023-12-20T04:19:38;97183.88;;;3.42;100.00
49194;BME280;35029;50.804;12.866;2023-12-20T04:22:03;97185.50;;;3.43;100.00
49194;BME280;35029;50.804;12.866;2023-12-20T04:24:29;97181.91;;;3.44;100.00
49194;BME280;35029;50.804;12.866;2023-12-20T04:26:54;97181.91;;;3.44;100.00
49194;BME280;35029;50.804;12.866;2023-12-20T04:29:20;97186.47;;;3.50;100.00
49194;BME280;35029;50.804;12.866;2023-12-20T04:31:45;97191.38;;;3.53;100.00
49194;BME280;35029;50.804;12.866;2023-12-20T04:34:11;97186.97;;;3.45;100.00
49194;BME280;35029;50.804;12.866;2023-12-20T04:36:36;97197.78;;;3.50;100.00
49194;BME280;35029;50.804;12.866;2023-12-20T04:39:02;97176.81;;;3.34;100.00
49194;BME280;35029;50.804;12.866;2023-12-20T04:41:28;97164.22;;;3.29;100.00
49194;BME280;35029;50.804;12.866;2023-12-20T04:43:53;97188.94;;;3.51;100.00
49194;BME280;35029;50.804;12.866;2023-12-20T04:46:19;97201.41;;;3.58;100.00
49194;BME280;35029;50.804;12.866;2023-12-20T04:48:45;97203.03;;;3.59;100.00
49194;BME280;35029;50.804;12.866;2023-12-20T04:51:10;97201.22;;;3.43;100.00
49194;BME280;35029;50.804;12.866;2023-12-20T04:53:36;97199.59;;;3.42;100.00
49194;BME280;35029;50.804;12.866;2023-12-20T04:56:02;97203.34;;;3.47;100.00
49194;BME280;35029;50.804;12.866;2023-12-20T04:58:28;97203.00;;;3.50;100.00
49194;BME280;35029;50.804;12.866;2023-12-20T05:00:53;97183.06;;;3.41;100.00
49194;BME280;35029;50.804;12.866;2023-12-20T05:03:19;97199.09;;;3.46;100.00
49194;BME280;35029;50.804;12.866;2023-12-20T05:05:44;97204.66;;;3.60;100.00
49194;BME280;35029;50.804;12.866;2023-12-20T05:08:10;97206.94;;;3.46;100.00
49194;BME280;35029;50.804;12.866;2023-12-20T05:10:35;97214.84;;;3.54;100.00
49194;BME280;35029;50.804;12.866;2023-12-20T05:13:01;97214.00;;;3.54;100.00
49194;BME280;35029;50.804;12.866;2023-12-20T05:15:27;97215.63;;;3.47;100.00
49194;BME280;35029;50.804;12.866;2023-12-20T05:17:53;97216.78;;;3.52;100.00
49194;BME280;35029;50.804;12.866;2023-12-20T05:20:18;97207.63;;;3.57;100.00
49194;BME280;35029;50.804;12.866;2023-12-20T05:22:44;97205.97;;;3.55;100.00
49194;BME280;35029;50.804;12.866;2023-12-20T05:25:10;97200.38;;;3.42;100.00
49194;BME280;35029;50.804;12.866;2023-12-20T05:27:36;97221.22;;;3.52;100.00
49194;BME280;35029;50.804;12.866;2023-12-20T05:30:01;97224.31;;;3.55;100.00
49194;BME280;35029;50.804;12.866;2023-12-20T05:32:27;97223.66;;;3.53;100.00
49194;BME280;35029;50.804;12.866;2023-12-20T05:34:53;97216.94;;;3.59;100.00
49194;BME280;35029;50.804;12.866;2023-12-20T05:37:18;97212.22;;;3.63;100.00
49194;BME280;35029;50.804;12.866;2023-12-20T05:39:44;97213.03;;;3.63;100.00
49194;BME280;35029;50.804;12.866;2023-12-20T05:42:09;97218.59;;;3.60;100.00
49194;BME280;35029;50.804;12.866;2023-12-20T05:44:35;97216.44;;;3.64;100.00
49194;BME280;35029;50.804;12.866;2023-12-20T05:47:00;97224.47;;;3.62;100.00
49194;BME280;35029;50.804;12.866;2023-12-20T05:49:26;97230.41;;;3.56;100.00
49194;BME280;35029;50.804;12.866;2023-12-20T05:51:51;97225.63;;;3.60;100.00
49194;BME280;35029;50.804;12.866;2023-12-20T05:54:17;97204.81;;;3.50;100.00
49194;BME280;35029;50.804;12.866;2023-12-20T05:56:43;97237.13;;;3.67;100.00
49194;BME280;35029;50.804;12.866;2023-12-20T05:59:08;97241.03;;;3.71;100.00
49194;BME280;35029;50.804;12.866;2023-12-20T06:01:34;97239.56;;;3.68;100.00
49194;BME280;35029;50.804;12.866;2023-12-20T06:04:01;97239.06;;;3.65;100.00
49194;BME280;35029;50.804;12.866;2023-12-20T06:06:26;97237.59;;;3.62;100.00
49194;BME280;35029;50.804;12.866;2023-12-20T06:08:52;97230.88;;;3.68;100.00
49194;BME280;35029;50.804;12.866;2023-12-20T06:11:17;97236.09;;;3.68;100.00
49194;BME280;35029;50.804;12.866;2023-12-20T06:13:43;97208.94;;;3.52;100.00
49194;BME280;35029;50.804;12.866;2023-12-20T06:16:08;97236.44;;;3.73;100.00
49194;BME280;35029;50.804;12.866;2023-12-20T06:18:34;97246.94;;;3.65;100.00
49194;BME280;35029;50.804;12.866;2023-12-20T06:21:00;97251.19;;;3.74;100.00
49194;BME280;35029;50.804;12.866;2023-12-20T06:23:25;97255.47;;;3.67;100.00
49194;BME280;35029;50.804;12.866;2023-12-20T06:25:52;97251.66;;;3.69;100.00
49194;BME280;35029;50.804;12.866;2023-12-20T06:28:18;97219.25;;;3.46;100.00
49194;BME280;35029;50.804;12.866;2023-12-20T06:30:43;97263.81;;;3.70;100.00
49194;BME280;35029;50.804;12.866;2023-12-20T06:33:09;97261.19;;;3.70;100.00
49194;BME280;35029;50.804;12.866;2023-12-20T06:35:36;97266.25;;;3.72;100.00
49194;BME280;35029;50.804;12.866;2023-12-20T06:38:03;97259.41;;;3.71;100.00
49194;BME280;35029;50.804;12.866;2023-12-20T06:40:29;97259.69;;;3.76;100.00
49194;BME280;35029;50.804;12.866;2023-12-20T06:42:55;97259.06;;;3.74;100.00
49194;BME280;35029;50.804;12.866;2023-12-20T06:45:21;97272.81;;;3.84;100.00
49194;BME280;35029;50.804;12.866;2023-12-20T06:47:46;97266.09;;;3.73;100.00
49194;BME280;35029;50.804;12.866;2023-12-20T06:50:12;97276.25;;;3.77;100.00
49194;BME280;35029;50.804;12.866;2023-12-20T06:52:37;97266.25;;;3.72;100.00
49194;BME280;35029;50.804;12.866;2023-12-20T06:55:04;97281.81;;;3.73;100.00
49194;BME280;35029;50.804;12.866;2023-12-20T06:57:30;97284.94;;;3.69;100.00
49194;BME280;35029;50.804;12.866;2023-12-20T06:59:56;97285.78;;;3.78;100.00
49194;BME280;35029;50.804;12.866;2023-12-20T07:02:23;97289.53;;;3.75;100.00
49194;BME280;35029;50.804;12.866;2023-12-20T07:04:48;97267.09;;;3.64;100.00
49194;BME280;35029;50.804;12.866;2023-12-20T07:07:14;97292.63;;;3.79;100.00
49194;BME280;35029;50.804;12.866;2023-12-20T07:09:40;97294.78;;;3.75;100.00
49194;BME280;35029;50.804;12.866;2023-12-20T07:12:08;97270.84;;;3.62;100.00
49194;BME280;35029;50.804;12.866;2023-12-20T07:14:33;97297.06;;;3.78;100.00
49194;BME280;35029;50.804;12.866;2023-12-20T07:16:59;97302.81;;;3.82;100.00
49194;BME280;35029;50.804;12.866;2023-12-20T07:19:24;97302.16;;;3.80;100.00
49194;BME280;35029;50.804;12.866;2023-12-20T07:21:50;97300.84;;;3.76;100.00
49194;BME280;35029;50.804;12.866;2023-12-20T07:24:16;97289.69;;;3.65;100.00
49194;BME280;35029;50.804;12.866;2023-12-20T07:26:41;97297.53;;;3.73;100.00
49194;BME280;35029;50.804;12.866;2023-12-20T07:29:06;97297.06;;;3.78;100.00
49194;BME280;35029;50.804;12.866;2023-12-20T07:31:32;97304.13;;;3.78;100.00
49194;BME280;35029;50.804;12.866;2023-12-20T07:33:58;97301.00;;;3.82;100.00
49194;BME280;35029;50.804;12.866;2023-12-20T07:36:23;97308.53;;;3.77;100.00
49194;BME280;35029;50.804;12.866;2023-12-20T07:38:50;97295.44;;;3.94;100.00
49194;BME280;35029;50.804;12.866;2023-12-20T07:41:15;97309.03;;;4.22;100.00
49194;BME280;35029;50.804;12.866;2023-12-20T07:43:42;97310.69;;;4.06;100.00
49194;BME280;35029;50.804;12.866;2023-12-20T07:46:08;97298.38;;;3.91;100.00
49194;BME280;35029;50.804;12.866;2023-12-20T07:48:37;97287.09;;;3.82;100.00
49194;BME280;35029;50.804;12.866;2023-12-20T07:51:06;97287.91;;;3.91;100.00
49194;BME280;35029;50.804;12.866;2023-12-20T07:53:33;97294.78;;;3.83;100.00
49194;BME280;35029;50.804;12.866;2023-12-20T07:55:59;97300.03;;;3.92;100.00
49194;BME280;35029;50.804;12.866;2023-12-20T07:58:24;97303.78;;;3.81;100.00
49194;BME280;35029;50.804;12.866;2023-12-20T08:00:50;97288.69;;;3.66;100.00
49194;BME280;35029;50.804;12.866;2023-12-20T08:03:15;97300.66;;;3.77;100.00
49194;BME280;35029;50.804;12.866;2023-12-20T08:05:41;97300.66;;;3.77;100.00
49194;BME280;35029;50.804;12.866;2023-12-20T08:08:07;97308.38;;;3.87;100.00
49194;BME280;35029;50.804;12.866;2023-12-20T08:10:33;97304.78;;;3.88;100.00
49194;BME280;35029;50.804;12.866;2023-12-20T08:12:58;97304.78;;;3.88;100.00
49194;BME280;35029;50.804;12.866;2023-12-20T08:15:24;97301.00;;;3.91;100.00
49194;BME280;35029;50.804;12.866;2023-12-20T08:17:49;97306.41;;;3.89;100.00
49194;BME280;35029;50.804;12.866;2023-12-20T08:20:18;97305.91;;;3.94;100.00
49194;BME280;35029;50.804;12.866;2023-12-20T08:22:44;97305.44;;;3.98;100.00
49194;BME280;35029;50.804;12.866;2023-12-20T08:25:09;97309.38;;;3.94;100.00
49194;BME280;35029;50.804;12.866;2023-12-20T08:27:40;97318.84;;;4.03;100.00
49194;BME280;35029;50.804;12.866;2023-12-20T08:30:08;97314.94;;;4.07;100.00
49194;BME280;35029;50.804;12.866;2023-12-20T08:32:34;97321.81;;;4.09;100.00
49194;BME280;35029;50.804;12.866;2023-12-20T08:34:59;97319.03;;;4.02;100.00
49194;BME280;35029;50.804;12.866;2023-12-20T08:37:25;97314.44;;;4.04;100.00
49194;BME280;35029;50.804;12.866;2023-12-20T08:39:50;97317.06;;;3.96;100.00
49194;BME280;35029;50.804;12.866;2023-12-20T08:42:16;97317.88;;;3.96;100.00
49194;BME280;35029;50.804;12.866;2023-12-20T08:44:41;97319.88;;;3.94;100.00
49194;BME280;35029;50.804;12.866;2023-12-20T08:47:07;97325.75;;;3.88;100.00
49194;BME280;35029;50.804;12.866;2023-12-20T08:49:32;97323.63;;;3.83;100.00
49194;BME280;35029;50.804;12.866;2023-12-20T08:51:58;97315.75;;;3.83;100.00
49194;BME280;35029;50.804;12.866;2023-12-20T08:54:24;97315.75;;;3.83;100.00
49194;BME280;35029;50.804;12.866;2023-12-20T08:56:49;97330.50;;;3.84;100.00
49194;BME280;35029;50.804;12.866;2023-12-20T08:59:15;97320.84;;;3.85;100.00
49194;BME280;35029;50.804;12.866;2023-12-20T09:01:41;97331.31;;;3.85;100.00
49194;BME280;35029;50.804;12.866;2023-12-20T09:04:06;97327.56;;;3.79;100.00
49194;BME280;35029;50.804;12.866;2023-12-20T09:06:32;97333.78;;;3.95;100.00
49194;BME280;35029;50.804;12.866;2023-12-20T09:08:57;97318.22;;;3.85;100.00
49194;BME280;35029;50.804;12.866;2023-12-20T09:11:23;97331.16;;;3.86;100.00
49194;BME280;35029;50.804;12.866;2023-12-20T09:13:48;97329.03;;;3.82;100.00
49194;BME280;35029;50.804;12.866;2023-12-20T09:16:14;97336.25;;;3.96;100.00
49194;BME280;35029;50.804;12.866;2023-12-20T09:18:41;97322.00;;;3.91;100.00
49194;BME280;35029;50.804;12.866;2023-12-20T09:21:07;97333.44;;;4.06;100.00
49194;BME280;35029;50.804;12.866;2023-12-20T09:23:32;97327.22;;;4.07;100.00
49194;BME280;35029;50.804;12.866;2023-12-20T09:25:58;97340.00;;;4.10;100.00
49194;BME280;35029;50.804;12.866;2023-12-20T09:28:24;97333.16;;;4.17;100.00
49194;BME280;35029;50.804;12.866;2023-12-20T09:30:49;97321.34;;;4.05;100.00
49194;BME280;35029;50.804;12.866;2023-12-20T09:33:15;97321.66;;;4.18;100.00
49194;BME280;35029;50.804;12.866;2023-12-20T09:35:42;97325.56;;;4.22;100.00
49194;BME280;35029;50.804;12.866;2023-12-20T09:38:07;97321.00;;;4.08;100.00
49194;BME280;35029;50.804;12.866;2023-12-20T09:40:34;97323.13;;;4.29;100.00
49194;BME280;35029;50.804;12.866;2023-12-20T09:43:10;97324.94;;;4.29;100.00
49194;BME280;35029;50.804;12.866;2023-12-20T09:45:36;97321.00;;;4.33;100.00
49194;BME280;35029;50.804;12.866;2023-12-20T09:48:03;97320.00;;;4.34;100.00
49194;BME280;35029;50.804;12.866;2023-12-20T09:50:30;97326.22;;;4.41;100.00
49194;BME280;35029;50.804;12.866;2023-12-20T09:52:57;97313.72;;;4.60;100.00
49194;BME280;35029;50.804;12.866;2023-12-20T09:55:25;97315.72;;;4.49;100.00
49194;BME280;35029;50.804;12.866;2023-12-20T09:57:51;97321.63;;;4.51;100.00
49194;BME280;35029;50.804;12.866;2023-12-20T10:00:16;97324.72;;;4.47;100.00
49194;BME280;35029;50.804;12.866;2023-12-20T10:02:50;97316.22;;;4.45;100.00
49194;BME280;35029;50.804;12.866;2023-12-20T10:05:17;97307.66;;;4.51;100.00
49194;BME280;35029;50.804;12.866;2023-12-20T10:07:46;97292.09;;;4.41;100.00
49194;BME280;35029;50.804;12.866;2023-12-20T10:10:13;97299.97;;;4.41;100.00
49194;BME280;35029;50.804;12.866;2023-12-20T10:12:39;97289.78;;;4.54;100.00
49194;BME280;35029;50.804;12.866;2023-12-20T10:15:05;97291.59;;;4.46;100.00
49194;BME280;35029;50.804;12.866;2023-12-20T10:17:31;97282.88;;;4.53;100.00
49194;BME280;35029;50.804;12.866;2023-12-20T10:19:57;97283.56;;;4.55;100.00
49194;BME280;35029;50.804;12.866;2023-12-20T10:22:23;97288.94;;;4.54;100.00
49194;BME280;35029;50.804;12.866;2023-12-20T10:24:49;97289.09;;;4.61;100.00
49194;BME280;35029;50.804;12.866;2023-12-20T10:27:17;97281.41;;;4.51;100.00
49194;BME280;35029;50.804;12.866;2023-12-20T10:29:44;97273.22;;;4.46;100.00
49194;BME280;35029;50.804;12.866;2023-12-20T10:32:30;97275.53;;;4.49;100.00
49194;BME280;35029;50.804;12.866;2023-12-20T10:34:57;97264.72;;;4.44;100.00
49194;BME280;35029;50.804;12.866;2023-12-20T10:37:22;97260.78;;;4.39;100.00
49194;BME280;35029;50.804;12.866;2023-12-20T10:39:53;97254.84;;;4.46;100.00
49194;BME280;35029;50.804;12.866;2023-12-20T10:42:24;97274.53;;;4.50;100.00
49194;BME280;35029;50.804;12.866;2023-12-20T10:44:51;97259.25;;;4.53;100.00
49194;BME280;35029;50.804;12.866;2023-12-20T10:47:20;97247.25;;;4.59;100.00
49194;BME280;35029;50.804;12.866;2023-12-20T10:49:46;97242.84;;;4.60;100.00
49194;BME280;35029;50.804;12.866;2023-12-20T10:52:12;97242.22;;;4.49;100.00
49194;BME280;35029;50.804;12.866;2023-12-20T10:54:39;97239.41;;;4.51;100.00
49194;BME280;35029;50.804;12.866;2023-12-20T10:57:06;97238.38;;;4.68;100.00
49194;BME280;35029;50.804;12.866;2023-12-20T10:59:36;97242.03;;;4.90;100.00
49194;BME280;35029;50.804;12.866;2023-12-20T11:02:03;97250.28;;;4.87;100.00
49194;BME280;35029;50.804;12.866;2023-12-20T11:04:41;97236.69;;;4.76;100.00
49194;BME280;35029;50.804;12.866;2023-12-20T11:07:21;97239.47;;;4.82;100.00
49194;BME280;35029;50.804;12.866;2023-12-20T11:12:47;97226.38;;;4.74;100.00
49194;BME280;35029;50.804;12.866;2023-12-20T11:15:15;97239.94;;;4.86;100.00
49194;BME280;35029;50.804;12.866;2023-12-20T11:17:44;97242.88;;;4.91;100.00
49194;BME280;35029;50.804;12.866;2023-12-20T11:20:11;97227.44;;;4.88;100.00
49194;BME280;35029;50.804;12.866;2023-12-20T11:22:37;97240.94;;;4.85;100.00
49194;BME280;35029;50.804;12.866;2023-12-20T11:25:10;97244.03;;;4.88;100.00
49194;BME280;35029;50.804;12.866;2023-12-20T11:27:40;97233.19;;;4.91;100.00
49194;BME280;35029;50.804;12.866;2023-12-20T11:30:06;97243.03;;;4.98;100.00
49194;BME280;35029;50.804;12.866;2023-12-20T11:32:35;97234.44;;;5.04;100.00
49194;BME280;35029;50.804;12.866;2023-12-20T11:35:17;97251.72;;;4.98;100.00
49194;BME280;35029;50.804;12.866;2023-12-20T11:37:43;97240.88;;;4.93;100.00
49194;BME280;35029;50.804;12.866;2023-12-20T11:40:12;97239.06;;;5.02;100.00
49194;BME280;35029;50.804;12.866;2023-12-20T11:42:38;97234.97;;;4.99;100.00
49194;BME280;35029;50.804;12.866;2023-12-20T11:45:05;97233.00;;;4.93;100.00
49194;BME280;35029;50.804;12.866;2023-12-20T11:47:31;97209.91;;;4.88;100.00
49194;BME280;35029;50.804;12.866;2023-12-20T11:49:57;97208.91;;;4.89;100.00
49194;BME280;35029;50.804;12.866;2023-12-20T11:52:23;97218.09;;;4.94;100.00
49194;BME280;35029;50.804;12.866;2023-12-20T11:54:48;97204.59;;;4.97;100.00
49194;BME280;35029;50.804;12.866;2023-12-20T11:57:14;97188.72;;;4.90;100.00
49194;BME280;35029;50.804;12.866;2023-12-20T11:59:39;97194.28;;;4.95;100.00
49194;BME280;35029;50.804;12.866;2023-12-20T12:02:05;97203.94;;;4.95;100.00
49194;BME280;35029;50.804;12.866;2023-12-20T12:04:31;97204.56;;;5.05;100.00
49194;BME280;35029;50.804;12.866;2023-12-20T12:06:57;97203.91;;;5.26;100.00
49194;BME280;35029;50.804;12.866;2023-12-20T12:09:22;97188.38;;;5.16;100.00
49194;BME280;35029;50.804;12.866;2023-12-20T12:11:48;97196.91;;;5.18;100.00
49194;BME280;35029;50.804;12.866;2023-12-20T12:14:14;97205.78;;;5.17;100.00
49194;BME280;35029;50.804;12.866;2023-12-20T12:16:41;97183.84;;;5.10;100.00
49194;BME280;35029;50.804;12.866;2023-12-20T12:19:20;97172.13;;;5.21;100.00
49194;BME280;35029;50.804;12.866;2023-12-20T12:21:46;97183.25;;;5.23;100.00
49194;BME280;35029;50.804;12.866;2023-12-20T12:24:12;97173.09;;;5.20;100.00
49194;BME280;35029;50.804;12.866;2023-12-20T12:26:38;97160.59;;;5.22;100.00
49194;BME280;35029;50.804;12.866;2023-12-20T12:29:03;97159.97;;;5.20;100.00
49194;BME280;35029;50.804;12.866;2023-12-20T12:31:29;97153.06;;;5.19;100.00
49194;BME280;35029;50.804;12.866;2023-12-20T12:33:55;97147.44;;;5.22;100.00
49194;BME280;35029;50.804;12.866;2023-12-20T12:36:21;97145.66;;;5.22;100.00
49194;BME280;35029;50.804;12.866;2023-12-20T12:38:47;97145.00;;;5.20;100.00
49194;BME280;35029;50.804;12.866;2023-12-20T12:41:13;97141.94;;;5.17;100.00
49194;BME280;35029;50.804;12.866;2023-12-20T12:43:40;97129.78;;;5.16;100.00
49194;BME280;35029;50.804;12.866;2023-12-20T12:46:06;97129.34;;;5.27;100.00
49194;BME280;35029;50.804;12.866;2023-12-20T12:48:31;97128.59;;;5.18;100.00